Time;durP1;ratioP1;P1;durP2;ratioP2;P2;SDS_P1;SDS_P2;PMS_P1;PMS_P2;Temp;Humidity;BMP_temperature;BMP_pressure;BME280_temperature;BME280_humidity;BME280_pressure;Samples;Min_cycle;Max_cycle;Signal;HPM_P1;HPM_P2
2023/01/04 00:01:36;;;;;;;0.10;0.10;;;4.60;99.90;12.80;163505.00;;;;5015155;28;20203;-72
2023/01/04 00:04:04;;;;;;;0.10;0.10;;;4.60;99.90;12.80;163505.00;;;;5007089;28;20240;-72
2023/01/04 00:06:32;;;;;;;0.10;0.10;;;4.60;99.90;12.80;163505.00;;;;5003426;28;20196;-73
2023/01/04 00:09:00;;;;;;;0.10;0.10;;;4.70;99.90;12.80;163505.00;;;;5009234;28;20662;-73
2023/01/04 00:11:28;;;;;;;0.10;0.10;;;4.70;99.90;12.80;163505.00;;;;5010248;28;20192;-72
2023/01/04 00:13:58;;;;;;;0.10;0.10;;;4.70;99.90;12.80;163505.00;;;;5015627;28;20224;-72
2023/01/04 00:16:29;;;;;;;0.10;0.10;;;4.70;99.90;12.80;163505.00;;;;5016748;28;20661;-72
2023/01/04 00:18:57;;;;;;;0.10;0.10;;;4.70;99.90;12.80;163505.00;;;;5008370;28;20286;-72
2023/01/04 00:21:29;;;;;;;0.10;0.10;;;4.60;99.90;12.80;163505.00;;;;5010630;28;20246;-72
2023/01/04 00:24:01;;;;;;;0.10;0.10;;;4.60;99.90;12.80;163505.00;;;;5006118;28;20247;-72
2023/01/04 00:26:33;;;;;;;0.10;0.10;;;4.60;99.90;12.80;163505.00;;;;5015038;28;20199;-72
2023/01/04 00:29:04;;;;;;;0.10;0.10;;;4.60;99.90;12.80;163505.00;;;;5011953;28;20668;-73
2023/01/04 00:31:34;;;;;;;0.10;0.10;;;4.60;99.90;12.80;163505.00;;;;5007400;28;20216;-73
2023/01/04 00:34:05;;;;;;;0.10;0.10;;;4.70;99.90;12.80;163505.00;;;;5006496;28;20282;-72
2023/01/04 00:36:34;;;;;;;0.10;0.10;;;4.70;99.90;12.80;163505.00;;;;5004980;28;20196;-72
2023/01/04 00:39:10;;;;;;;0.10;0.10;;;4.70;99.90;12.80;163505.00;;;;5008026;28;20227;-73
2023/01/04 00:41:40;;;;;;;0.10;0.10;;;4.80;99.90;12.80;163505.00;;;;5005295;28;20195;-72
2023/01/04 00:44:27;;;;;;;0.10;0.10;;;4.80;99.90;12.80;163505.00;;;;5006366;28;20231;-74
2023/01/04 00:46:57;;;;;;;0.10;0.10;;;4.90;99.90;12.80;163505.00;;;;5008916;28;20203;-74
2023/01/04 00:49:27;;;;;;;0.10;0.10;;;5.00;99.90;12.80;163505.00;;;;5004378;28;20195;-72
2023/01/04 00:51:55;;;;;;;0.10;0.10;;;5.10;99.90;12.80;163505.00;;;;5006070;28;20250;-74
2023/01/04 00:54:24;;;;;;;0.10;0.10;;;5.10;99.90;12.80;163505.00;;;;5011299;28;20245;-74
2023/01/04 00:56:52;;;;;;;0.10;0.10;;;5.00;99.90;12.80;163505.00;;;;5000344;28;20204;-73
2023/01/04 00:59:21;;;;;;;0.10;0.10;;;5.00;99.90;12.80;163505.00;;;;5007014;28;20211;-73
2023/01/04 01:01:51;;;;;;;0.10;0.10;;;5.00;99.90;12.80;163505.00;;;;4997842;28;20210;-73
2023/01/04 01:04:23;;;;;;;0.10;0.10;;;5.00;99.90;12.80;163505.00;;;;5010738;28;20290;-73
2023/01/04 01:06:52;;;;;;;0.10;0.10;;;5.00;99.90;12.80;163505.00;;;;5009845;28;20254;-73
2023/01/04 01:09:22;;;;;;;0.10;0.10;;;5.10;99.90;12.80;163505.00;;;;5003082;28;20204;-73
2023/01/04 01:11:51;;;;;;;0.10;0.10;;;5.10;99.90;12.80;163505.00;;;;5007564;28;20199;-73
2023/01/04 01:14:23;;;;;;;0.10;0.10;;;5.10;99.90;12.80;163505.00;;;;5010027;28;20269;-73
2023/01/04 01:16:52;;;;;;;0.10;0.10;;;5.10;99.90;12.80;163505.00;;;;5010495;28;20207;-73
2023/01/04 01:19:28;;;;;;;0.10;0.10;;;5.10;99.90;12.80;163505.00;;;;5002542;28;20605;-73
2023/01/04 01:21:57;;;;;;;0.10;0.10;;;5.10;99.90;12.80;163505.00;;;;5002355;28;20211;-73
2023/01/04 01:24:26;;;;;;;0.10;0.10;;;5.10;99.90;12.80;163505.00;;;;5010662;28;20215;-72
2023/01/04 01:26:55;;;;;;;0.10;0.10;;;5.20;99.90;12.80;163505.00;;;;5008592;28;20205;-73
2023/01/04 01:29:23;;;;;;;0.10;0.10;;;5.10;99.90;12.80;163505.00;;;;5007187;28;20199;-73
2023/01/04 01:31:51;;;;;;;0.10;0.10;;;5.10;99.90;12.80;163505.00;;;;5010921;28;20188;-72
2023/01/04 01:34:19;;;;;;;0.10;0.10;;;5.30;99.90;12.80;163505.00;;;;5006773;28;20242;-73
2023/01/04 01:36:49;;;;;;;0.10;0.10;;;5.30;99.90;12.80;163505.00;;;;5002650;28;20218;-73
2023/01/04 01:39:17;;;;;;;0.10;0.10;;;5.40;99.90;12.80;163505.00;;;;5010132;28;20196;-74
2023/01/04 01:41:45;;;;;;;0.10;0.10;;;5.50;99.90;12.80;163505.00;;;;5009407;28;20191;-74
2023/01/04 01:44:59;;;;;;;0.10;0.10;;;5.50;99.90;12.80;163505.00;;;;5014813;28;20227;-73
2023/01/04 01:47:37;;;;;;;0.05;0.05;;;5.50;99.90;12.80;163505.00;;;;4930525;29;20291;-75
2023/01/04 01:50:18;;;;;;;0.10;0.10;;;5.50;99.90;12.80;163505.00;;;;4997989;28;20211;-72
2023/01/04 01:52:49;;;;;;;0.10;0.10;;;5.50;99.90;12.80;163505.00;;;;5002589;28;20685;-73
2023/01/04 01:55:18;;;;;;;0.10;0.10;;;5.50;99.90;12.80;163505.00;;;;5013020;28;20560;-74
2023/01/04 01:57:50;;;;;;;0.10;0.10;;;5.50;99.90;12.80;163505.00;;;;5010161;28;20250;-73
2023/01/04 02:00:18;;;;;;;0.10;0.10;;;5.60;99.90;12.80;163505.00;;;;5013324;28;20196;-72
2023/01/04 02:02:57;;;;;;;0.10;0.10;;;5.60;99.90;12.80;163505.00;;;;5009340;28;20199;-72
2023/01/04 02:05:29;;;;;;;0.10;0.10;;;5.50;99.90;12.80;163505.00;;;;5007892;28;20223;-72
2023/01/04 02:08:00;;;;;;;0.10;0.10;;;5.60;99.90;12.80;163505.00;;;;5020999;28;20278;-72
2023/01/04 02:10:28;;;;;;;0.10;0.10;;;5.60;99.90;12.80;163505.00;;;;5006340;28;20192;-72
2023/01/04 02:13:09;;;;;;;0.10;0.10;;;5.60;99.90;12.80;163505.00;;;;5018155;28;20191;-72
2023/01/04 02:15:59;;;;;;;0.10;0.10;;;5.60;99.90;12.80;163505.00;;;;5013233;28;20223;-72
2023/01/04 02:18:33;;;;;;;0.10;0.10;;;5.60;99.90;12.80;163505.00;;;;5006764;28;20220;-72
2023/01/04 02:21:08;;;;;;;0.10;0.10;;;5.70;99.90;12.80;163505.00;;;;5007259;28;20200;-73
2023/01/04 02:24:20;;;;;;;0.10;0.10;;;5.70;99.90;12.80;163505.00;;;;5006689;28;20218;-74
2023/01/04 02:27:38;;;;;;;0.10;0.10;;;5.70;99.90;12.80;163505.00;;;;5003535;28;20223;-73
2023/01/04 02:30:43;;;;;;;0.10;0.10;;;5.80;99.90;12.80;163505.00;;;;4998441;28;20626;-73
2023/01/04 02:33:35;;;;;;;0.10;0.10;;;5.80;99.90;12.80;163505.00;;;;5008453;28;20203;-73
2023/01/04 02:36:14;;;;;;;0.10;0.10;;;5.80;99.90;12.80;163505.00;;;;5012542;28;20212;-73
2023/01/04 02:38:59;;;;;;;0.10;0.10;;;5.80;99.90;12.80;163505.00;;;;5008285;28;20211;-73
2023/01/04 02:41:33;;;;;;;0.10;0.10;;;5.80;99.90;12.80;163505.00;;;;5009785;28;20195;-72
2023/01/04 02:47:04;;;;;;;0.10;0.10;;;5.70;99.90;12.80;163505.00;;;;5005490;28;20723;-72
2023/01/04 02:52:23;;;;;;;0.10;0.10;;;5.70;99.90;12.80;163505.00;;;;5007059;28;20634;-73
2023/01/04 02:54:55;;;;;;;0.10;0.10;;;5.70;99.90;12.80;163505.00;;;;5006872;28;20750;-73
2023/01/04 02:57:41;;;;;;;0.10;0.10;;;5.60;99.90;12.80;163505.00;;;;5008422;28;20227;-73
2023/01/04 03:00:28;;;;;;;0.10;0.10;;;5.60;99.90;12.80;163505.00;;;;5011847;28;20199;-73
2023/01/04 03:06:17;;;;;;;0.10;0.10;;;5.50;99.90;12.80;163505.00;;;;5034133;28;20769;-73
2023/01/04 03:09:04;;;;;;;0.10;0.10;;;5.50;99.90;12.80;163505.00;;;;5014051;28;20200;-73
2023/01/04 03:14:33;;;;;;;0.10;0.10;;;5.50;99.90;12.80;163505.00;;;;5005127;28;20228;-73
2023/01/04 03:17:05;;;;;;;0.10;0.10;;;5.40;99.90;12.80;163505.00;;;;5009270;28;20282;-72
2023/01/04 03:19:52;;;;;;;0.10;0.10;;;5.40;99.90;12.80;163505.00;;;;5006544;28;20664;-72
2023/01/04 03:37:08;;;;;;;0.10;0.10;;;5.20;99.90;12.80;163505.00;;;;5008480;28;20207;-74
2023/01/04 03:48:48;;;;;;;0.10;0.10;;;5.30;99.90;12.80;163505.00;;;;5008562;28;20188;-75
2023/01/04 03:51:23;;;;;;;0.10;0.10;;;5.20;99.90;12.80;163505.00;;;;5018027;28;20199;-75
2023/01/04 03:53:59;;;;;;;0.10;0.10;;;5.20;99.90;12.80;163505.00;;;;5007044;28;20253;-75
2023/01/04 03:56:31;;;;;;;0.10;0.10;;;5.20;99.90;12.80;163505.00;;;;5004919;28;20207;-75
2023/01/04 03:59:00;;;;;;;0.10;0.10;;;5.20;99.90;12.80;163505.00;;;;5010826;28;20208;-73
2023/01/04 04:01:29;;;;;;;0.10;0.10;;;5.20;99.90;12.80;163505.00;;;;5005211;28;20211;-75
2023/01/04 04:09:29;;;;;;;0.10;0.10;;;5.20;99.90;12.80;163505.00;;;;5004101;28;20215;-75
2023/01/04 04:11:59;;;;;;;0.10;0.10;;;5.10;99.90;12.80;163505.00;;;;5003521;28;20215;-75
2023/01/04 04:14:27;;;;;;;0.10;0.10;;;5.10;99.90;12.80;163505.00;;;;5009501;28;20725;-75
2023/01/04 04:16:55;;;;;;;0.10;0.10;;;5.00;99.90;12.80;163505.00;;;;5010420;28;20207;-74
2023/01/04 04:19:23;;;;;;;0.10;0.10;;;5.00;99.90;12.80;163505.00;;;;5008019;28;20250;-75
2023/01/04 04:21:51;;;;;;;0.10;0.10;;;5.00;99.90;12.80;163505.00;;;;5008685;28;20215;-75
2023/01/04 04:24:22;;;;;;;0.10;0.10;;;5.00;99.90;12.80;163505.00;;;;5007150;28;20558;-75
2023/01/04 04:26:50;;;;;;;0.10;0.10;;;5.00;99.90;12.80;163505.00;;;;5010493;28;20222;-75
2023/01/04 04:29:20;;;;;;;0.10;0.10;;;5.00;99.90;12.80;163505.00;;;;4999954;28;20247;-75
2023/01/04 04:31:47;;;;;;;0.10;0.10;;;5.00;99.90;12.80;163505.00;;;;5004141;28;20195;-75
2023/01/04 04:34:16;;;;;;;0.10;0.10;;;5.00;99.90;12.80;163505.00;;;;5011327;28;20219;-75
2023/01/04 04:36:44;;;;;;;0.10;0.10;;;5.00;99.90;12.80;163505.00;;;;5004883;28;20208;-75
2023/01/04 04:39:12;;;;;;;0.10;0.10;;;5.00;99.90;12.80;163505.00;;;;5009767;28;20246;-75
2023/01/04 04:41:40;;;;;;;0.10;0.10;;;5.00;99.90;12.80;163505.00;;;;5009771;28;20676;-75
2023/01/04 04:44:12;;;;;;;0.10;0.10;;;5.00;99.90;12.80;163505.00;;;;5028556;23;20224;-73
2023/01/04 04:46:42;;;;;;;0.10;0.10;;;4.90;99.90;12.80;163505.00;;;;4983219;28;20700;-73
2023/01/04 04:49:12;;;;;;;0.10;0.10;;;4.90;99.90;12.80;163505.00;;;;4983635;28;20196;-74
2023/01/04 04:51:41;;;;;;;0.10;0.10;;;4.90;99.90;12.80;163505.00;;;;4991667;28;20280;-75
2023/01/04 04:54:14;;;;;;;0.10;0.10;;;4.80;99.90;12.80;163505.00;;;;4993331;28;20200;-74
2023/01/04 04:56:42;;;;;;;0.10;0.10;;;4.80;99.90;12.80;163505.00;;;;5001747;28;20239;-74
2023/01/04 04:59:10;;;;;;;0.10;0.10;;;4.80;99.90;12.80;163505.00;;;;5005881;28;20207;-74
2023/01/04 05:01:38;;;;;;;0.10;0.10;;;4.80;99.90;12.80;163505.00;;;;4996488;28;20205;-74
2023/01/04 05:04:08;;;;;;;0.10;0.10;;;4.80;99.90;12.80;163505.00;;;;4985158;28;20619;-75
2023/01/04 05:06:35;;;;;;;0.10;0.10;;;4.90;99.90;12.80;163505.00;;;;5006655;28;20211;-74
2023/01/04 05:09:03;;;;;;;0.10;0.10;;;4.90;99.90;12.80;163505.00;;;;5006147;28;20257;-74
2023/01/04 05:14:16;;;;;;;0.10;0.10;;;4.90;99.90;12.80;163505.00;;;;4982124;28;20224;-74
2023/01/04 05:16:44;;;;;;;0.10;0.10;;;5.00;99.90;12.80;163505.00;;;;4994097;28;20204;-74
2023/01/04 05:19:14;;;;;;;0.00;0.00;;;5.00;99.90;12.80;163505.00;;;;5005883;28;20204;-74
2023/01/04 05:21:42;;;;;;;0.10;0.10;;;5.00;99.90;12.80;163505.00;;;;4988582;28;20207;-74
2023/01/04 05:24:12;;;;;;;0.10;0.10;;;4.90;99.90;12.80;163505.00;;;;4997913;28;20529;-74
2023/01/04 05:26:40;;;;;;;0.00;0.00;;;4.90;99.90;12.80;163505.00;;;;5006750;28;20273;-74
2023/01/04 05:30:49;;;;;;;0.10;0.10;;;4.90;99.90;12.80;163505.00;;;;5014190;28;20637;-74
2023/01/04 05:31:56;;;;;;;0.10;0.10;;;4.90;99.90;12.80;163505.00;;;;4998895;28;20196;-74
2023/01/04 05:34:25;;;;;;;0.10;0.10;;;4.80;99.90;12.80;163505.00;;;;5011762;28;20220;-74
2023/01/04 05:36:53;;;;;;;0.10;0.10;;;4.80;99.90;12.80;163505.00;;;;4984134;28;20232;-74
2023/01/04 05:39:21;;;;;;;0.10;0.10;;;4.80;99.90;12.80;163505.00;;;;5011322;28;20699;-74
2023/01/04 05:44:35;;;;;;;0.10;0.10;;;4.80;99.90;12.80;163505.00;;;;5007541;28;20219;-74
2023/01/04 05:47:03;;;;;;;0.10;0.10;;;4.80;99.90;12.80;163505.00;;;;5008297;28;20238;-74
2023/01/04 05:49:37;;;;;;;0.10;0.10;;;4.80;99.90;12.80;163505.00;;;;5001616;28;20200;-74
2023/01/04 05:52:05;;;;;;;0.10;0.10;;;4.90;99.90;12.80;163505.00;;;;4999427;28;20685;-74
2023/01/04 05:54:33;;;;;;;0.10;0.10;;;5.00;99.90;12.80;163505.00;;;;5010256;28;20269;-74
2023/01/04 05:57:01;;;;;;;0.10;0.10;;;5.00;99.90;12.80;163505.00;;;;5008181;28;20212;-74
2023/01/04 05:59:29;;;;;;;0.10;0.10;;;5.00;99.90;12.80;163505.00;;;;5010751;28;20663;-74
2023/01/04 06:02:07;;;;;;;0.10;0.10;;;5.00;99.90;12.80;163505.00;;;;5010034;28;20210;-74
2023/01/04 06:04:36;;;;;;;0.10;0.10;;;5.00;99.90;12.80;163505.00;;;;4999839;28;20232;-74
2023/01/04 06:07:04;;;;;;;0.10;0.10;;;5.10;99.90;12.80;163505.00;;;;5011000;28;20278;-73
2023/01/04 06:09:32;;;;;;;0.10;0.10;;;5.10;99.90;12.80;163505.00;;;;5010131;28;20196;-73
2023/01/04 06:12:00;;;;;;;0.10;0.10;;;5.20;99.90;12.80;163505.00;;;;5012933;28;20265;-75
2023/01/04 06:14:28;;;;;;;0.10;0.10;;;5.20;99.90;12.80;163505.00;;;;4990837;28;20218;-74
2023/01/04 06:16:56;;;;;;;0.10;0.10;;;5.30;99.90;12.80;163505.00;;;;5011303;28;20602;-73
2023/01/04 06:19:24;;;;;;;0.10;0.10;;;5.30;99.90;12.80;163505.00;;;;5005554;28;20239;-74
2023/01/04 06:21:54;;;;;;;0.10;0.10;;;5.30;99.90;12.80;163505.00;;;;5008105;28;20676;-73
2023/01/04 06:24:22;;;;;;;0.10;0.10;;;5.40;99.90;12.80;163505.00;;;;5013346;28;20638;-74
2023/01/04 06:26:50;;;;;;;0.10;0.10;;;5.40;99.90;12.80;163505.00;;;;4993061;28;20270;-74
2023/01/04 06:29:18;;;;;;;0.10;0.10;;;5.50;99.90;12.80;163505.00;;;;5011949;28;20258;-74
2023/01/04 06:31:46;;;;;;;0.10;0.10;;;5.50;99.90;12.80;163505.00;;;;5008433;28;20204;-74
2023/01/04 06:34:15;;;;;;;0.10;0.10;;;5.50;99.90;12.80;163505.00;;;;4991340;28;20197;-74
2023/01/04 06:36:43;;;;;;;0.10;0.10;;;5.60;99.90;12.80;163505.00;;;;4995540;28;20195;-73
2023/01/04 06:39:12;;;;;;;0.10;0.10;;;5.60;99.90;12.80;163505.00;;;;5006598;28;20614;-74
2023/01/04 06:41:40;;;;;;;0.10;0.10;;;5.60;99.90;12.80;163505.00;;;;5007982;28;20200;-74
2023/01/04 06:44:08;;;;;;;0.10;0.10;;;5.60;99.90;12.80;163505.00;;;;5009841;28;20208;-73
2023/01/04 06:46:36;;;;;;;0.10;0.10;;;5.70;99.90;12.80;163505.00;;;;5013170;28;20315;-74
2023/01/04 06:49:04;;;;;;;0.10;0.10;;;5.70;99.90;12.80;163505.00;;;;5012035;28;20239;-73
2023/01/04 06:51:32;;;;;;;0.10;0.10;;;5.80;99.90;12.80;163505.00;;;;5007748;28;20204;-73
2023/01/04 06:54:00;;;;;;;0.10;0.10;;;5.90;99.90;12.80;163505.00;;;;5011477;28;20212;-73
2023/01/04 06:56:31;;;;;;;0.10;0.10;;;5.90;99.90;12.80;163505.00;;;;4991308;28;20727;-74
2023/01/04 06:58:59;;;;;;;0.10;0.10;;;6.00;99.90;12.80;163505.00;;;;5005597;28;20196;-74
2023/01/04 07:01:27;;;;;;;0.10;0.10;;;6.00;99.90;12.80;163505.00;;;;5012651;28;20208;-74
2023/01/04 07:03:55;;;;;;;0.00;0.00;;;5.90;99.90;12.80;163505.00;;;;5005686;28;20219;-73
2023/01/04 07:06:23;;;;;;;0.10;0.10;;;5.90;99.90;12.80;163505.00;;;;5006521;28;20219;-74
2023/01/04 07:08:51;;;;;;;0.10;0.10;;;5.90;99.90;12.80;163505.00;;;;5011203;28;20265;-74
2023/01/04 07:11:19;;;;;;;0.10;0.10;;;6.00;99.90;12.80;163505.00;;;;5005386;28;20196;-74
2023/01/04 07:13:48;;;;;;;0.10;0.10;;;6.00;99.90;12.80;163505.00;;;;5007294;28;20196;-74
2023/01/04 07:16:16;;;;;;;0.10;0.10;;;6.10;99.90;12.80;163505.00;;;;5009671;28;20223;-74
2023/01/04 07:18:44;;;;;;;0.10;0.10;;;6.10;99.90;12.80;163505.00;;;;5004069;28;20623;-74
2023/01/04 07:21:12;;;;;;;0.10;0.10;;;6.10;99.90;12.80;163505.00;;;;4991250;28;20214;-74
2023/01/04 07:23:40;;;;;;;0.10;0.10;;;6.10;99.90;12.80;163505.00;;;;5011640;28;20259;-74
2023/01/04 07:26:08;;;;;;;0.10;0.10;;;6.10;99.90;12.80;163505.00;;;;5003488;28;20229;-74
2023/01/04 07:31:25;;;;;;;0.10;0.10;;;6.00;99.90;12.80;163505.00;;;;4988290;28;20215;-74
2023/01/04 07:33:53;;;;;;;0.17;0.17;;;6.00;99.90;12.80;163505.00;;;;5009618;28;20618;-74
2023/01/04 07:36:21;;;;;;;0.10;0.10;;;6.00;99.90;12.80;163505.00;;;;5012775;28;20196;-74
2023/01/04 07:38:49;;;;;;;0.10;0.10;;;6.00;99.90;12.80;163505.00;;;;5008332;28;20238;-74
2023/01/04 07:41:17;;;;;;;0.10;0.10;;;6.00;99.90;12.80;163505.00;;;;5011102;28;20215;-75
2023/01/04 07:43:45;;;;;;;0.10;0.10;;;5.90;99.90;12.80;163505.00;;;;5007742;28;20199;-74
2023/01/04 07:46:13;;;;;;;0.10;0.10;;;5.90;99.90;12.80;163505.00;;;;5009762;28;20219;-74
2023/01/04 07:48:43;;;;;;;0.10;0.10;;;5.90;99.90;12.80;163505.00;;;;5010558;28;20277;-74
2023/01/04 07:51:11;;;;;;;0.00;0.00;;;5.90;99.90;12.80;163505.00;;;;5008889;28;20199;-74
2023/01/04 07:53:39;;;;;;;0.10;0.10;;;5.90;99.90;12.80;163505.00;;;;5008531;28;20191;-74
2023/01/04 07:56:08;;;;;;;0.10;0.10;;;5.90;99.90;12.80;163505.00;;;;5010824;28;20228;-74
2023/01/04 07:58:43;;;;;;;0.10;0.10;;;5.80;99.90;12.80;163505.00;;;;5003496;28;20200;-74
2023/01/04 08:01:15;;;;;;;0.10;0.10;;;5.80;99.90;12.80;163505.00;;;;5011436;28;20249;-75
2023/01/04 08:03:45;;;;;;;0.10;0.10;;;5.80;99.90;12.80;163505.00;;;;5009341;28;20188;-74
2023/01/04 08:06:16;;;;;;;0.10;0.10;;;5.80;99.90;12.80;163505.00;;;;5012245;28;20216;-74
2023/01/04 08:08:44;;;;;;;0.10;0.10;;;5.80;99.90;12.80;163505.00;;;;5008779;28;20220;-73
2023/01/04 08:11:15;;;;;;;0.10;0.10;;;5.80;99.90;12.80;163505.00;;;;5013882;28;20208;-73
2023/01/04 08:13:43;;;;;;;0.10;0.10;;;5.80;99.90;12.80;163505.00;;;;5009865;28;20192;-74
2023/01/04 08:16:21;;;;;;;0.05;0.05;;;5.90;99.90;12.80;163505.00;;;;5013295;28;20270;-73
2023/01/04 08:18:54;;;;;;;0.10;0.10;;;5.90;99.90;12.80;163505.00;;;;4999537;28;20203;-73
2023/01/04 08:21:23;;;;;;;0.10;0.10;;;5.90;99.90;12.80;163505.00;;;;5008482;28;20223;-74
2023/01/04 08:23:51;;;;;;;0.10;0.10;;;5.90;99.90;12.80;163505.00;;;;5011222;28;20192;-73
2023/01/04 08:26:21;;;;;;;0.10;0.10;;;5.90;99.90;12.80;163505.00;;;;5006535;28;20219;-73
2023/01/04 08:28:50;;;;;;;0.10;0.10;;;5.90;99.90;12.80;163505.00;;;;5010034;28;20266;-74
2023/01/04 08:31:21;;;;;;;0.10;0.10;;;5.80;99.90;12.80;163505.00;;;;5004271;28;20211;-74
2023/01/04 08:33:52;;;;;;;0.10;0.10;;;5.80;99.90;12.80;163505.00;;;;5009067;28;20209;-74
2023/01/04 08:36:23;;;;;;;0.10;0.10;;;5.90;99.90;12.80;163505.00;;;;5011612;28;20770;-74
2023/01/04 08:38:57;;;;;;;0.10;0.10;;;5.90;99.90;12.80;163505.00;;;;5007081;28;20269;-74
2023/01/04 08:41:28;;;;;;;0.10;0.10;;;5.90;99.90;12.80;163505.00;;;;5004639;28;20187;-74
2023/01/04 08:44:17;;;;;;;0.10;0.10;;;6.00;99.90;12.80;163505.00;;;;5002793;28;20292;-74
2023/01/04 08:46:45;;;;;;;0.10;0.10;;;6.00;99.90;12.80;163505.00;;;;5007250;28;20250;-73
2023/01/04 08:49:15;;;;;;;0.10;0.10;;;6.00;99.90;12.80;163505.00;;;;5009693;28;20281;-74
2023/01/04 08:51:44;;;;;;;0.10;0.10;;;6.00;99.90;12.80;163505.00;;;;5006613;28;20193;-73
2023/01/04 08:54:12;;;;;;;0.10;0.10;;;6.10;99.90;12.80;163505.00;;;;5009193;28;20203;-73
2023/01/04 08:56:41;;;;;;;0.10;0.10;;;6.10;99.90;12.80;163505.00;;;;5005480;28;20200;-73
2023/01/04 08:59:12;;;;;;;0.10;0.10;;;6.10;99.90;12.80;163505.00;;;;5008038;28;20231;-73
2023/01/04 09:01:41;;;;;;;0.10;0.10;;;6.20;99.90;12.80;163505.00;;;;5011817;28;20711;-73
2023/01/04 09:04:09;;;;;;;0.10;0.10;;;6.20;99.90;12.80;163505.00;;;;5011156;28;20196;-74
2023/01/04 09:06:39;;;;;;;0.10;0.10;;;6.20;99.90;12.80;163505.00;;;;5007667;28;20258;-74
2023/01/04 09:09:07;;;;;;;0.10;0.10;;;6.30;99.90;12.80;163505.00;;;;5009770;28;20233;-74
2023/01/04 09:11:37;;;;;;;0.10;0.10;;;6.40;99.90;12.80;163505.00;;;;5012940;28;20532;-74
2023/01/04 09:14:07;;;;;;;0.10;0.10;;;6.40;99.90;12.80;163505.00;;;;5008790;28;20206;-74
2023/01/04 09:16:37;;;;;;;0.10;0.10;;;6.50;99.90;12.80;163505.00;;;;4993938;28;20203;-73
2023/01/04 09:19:06;;;;;;;0.10;0.10;;;6.50;99.90;12.80;163505.00;;;;5014225;28;20553;-74
2023/01/04 09:21:34;;;;;;;0.10;0.10;;;6.50;99.90;12.80;163505.00;;;;5005179;28;20243;-73
2023/01/04 09:24:04;;;;;;;0.10;0.10;;;6.50;99.90;12.80;163505.00;;;;5003936;28;20201;-74
2023/01/04 09:26:32;;;;;;;0.10;0.10;;;6.50;99.90;12.80;163505.00;;;;5010077;28;20703;-74
2023/01/04 09:29:02;;;;;;;0.10;0.10;;;6.50;99.90;12.80;163505.00;;;;5006833;28;20259;-74
2023/01/04 09:31:30;;;;;;;0.10;0.10;;;6.50;99.90;12.80;163505.00;;;;5003095;28;20606;-73
2023/01/04 09:33:59;;;;;;;0.10;0.10;;;6.50;99.90;12.80;163505.00;;;;4993200;28;20295;-73
2023/01/04 09:36:45;;;;;;;0.10;0.10;;;6.40;99.90;12.80;163505.00;;;;5012879;28;20691;-73
2023/01/04 09:39:16;;;;;;;0.10;0.10;;;6.50;99.90;12.80;163505.00;;;;5013055;28;20204;-74
2023/01/04 09:41:57;;;;;;;0.10;0.10;;;6.50;99.90;12.80;163505.00;;;;5014629;28;20653;-73
2023/01/04 09:44:41;;;;;;;0.10;0.10;;;6.40;99.90;12.80;163505.00;;;;5000324;28;20236;-73
2023/01/04 09:47:39;;;;;;;0.10;0.10;;;6.50;99.90;12.80;163505.00;;;;5007383;28;20757;-73
2023/01/04 09:50:15;;;;;;;0.10;0.10;;;6.50;99.90;12.80;163505.00;;;;5005837;28;20223;-73
2023/01/04 09:52:59;;;;;;;0.10;0.10;;;6.50;99.90;12.80;163505.00;;;;5009951;28;20199;-74
2023/01/04 09:55:36;;;;;;;0.00;0.00;;;6.60;99.90;12.80;163505.00;;;;5011420;28;20301;-74
2023/01/04 09:58:23;;;;;;;0.10;0.10;;;6.60;99.90;12.80;163505.00;;;;5007832;28;20220;-73
2023/01/04 10:01:00;;;;;;;0.10;0.10;;;6.70;99.90;12.80;163505.00;;;;5011547;28;20231;-74
2023/01/04 10:03:32;;;;;;;0.10;0.10;;;6.70;99.90;12.80;163505.00;;;;4999133;28;20200;-78
2023/01/04 10:06:02;;;;;;;0.10;0.10;;;6.70;99.90;12.80;163505.00;;;;4997485;28;20674;-77
2023/01/04 10:08:31;;;;;;;0.10;0.10;;;6.60;99.90;12.80;163505.00;;;;5009887;28;20283;-78
2023/01/04 10:11:22;;;;;;;0.10;0.10;;;6.70;99.90;12.80;163505.00;;;;5004646;28;20559;-78
2023/01/04 10:14:18;;;;;;;0.10;0.10;;;6.60;99.90;12.80;163505.00;;;;5007787;28;20259;-77
2023/01/04 10:17:03;;;;;;;0.10;0.10;;;6.60;99.90;12.80;163505.00;;;;5010317;28;20199;-78
2023/01/04 10:20:03;;;;;;;0.10;0.10;;;6.70;99.90;12.80;163505.00;;;;5007517;28;20227;-77
2023/01/04 10:23:02;;;;;;;0.10;0.10;;;6.70;99.90;12.80;163505.00;;;;5001544;28;20648;-77
2023/01/04 10:25:39;;;;;;;0.10;0.10;;;6.70;99.90;12.80;163505.00;;;;5009690;28;20569;-77
2023/01/04 10:28:27;;;;;;;0.10;0.10;;;6.70;99.90;12.80;163505.00;;;;5011995;28;20274;-77
2023/01/04 10:31:10;;;;;;;0.10;0.10;;;6.70;99.90;12.80;163505.00;;;;5005730;28;20226;-77
2023/01/04 10:34:14;;;;;;;0.10;0.10;;;6.70;99.90;12.80;163505.00;;;;5011419;28;20665;-77
2023/01/04 10:36:48;;;;;;;0.10;0.10;;;6.70;99.90;12.80;163505.00;;;;5002588;28;20603;-77
2023/01/04 10:39:23;;;;;;;0.10;0.10;;;6.70;99.90;12.80;163505.00;;;;5003893;28;20204;-77
2023/01/04 10:42:19;;;;;;;0.10;0.10;;;6.70;99.90;12.80;163505.00;;;;5014031;28;20550;-77
2023/01/04 10:45:07;;;;;;;0.10;0.10;;;6.70;99.90;12.80;163505.00;;;;5027008;23;20679;-77
2023/01/04 10:47:46;;;;;;;0.10;0.10;;;6.70;99.90;12.80;163505.00;;;;5007745;28;20204;-77
2023/01/04 10:50:22;;;;;;;0.10;0.10;;;6.70;99.90;12.80;163505.00;;;;5013179;28;20230;-76
2023/01/04 10:52:59;;;;;;;0.10;0.10;;;6.70;99.90;12.80;163505.00;;;;5014564;28;20205;-77
2023/01/04 10:55:40;;;;;;;0.10;0.10;;;6.70;99.90;12.80;163505.00;;;;5013346;28;20692;-77
2023/01/04 10:58:38;;;;;;;0.10;0.10;;;6.70;99.90;12.80;163505.00;;;;5009603;28;20728;-77
2023/01/04 11:01:15;;;;;;;0.10;0.10;;;6.70;99.90;12.80;163505.00;;;;5013164;28;20199;-77
2023/01/04 11:03:51;;;;;;;0.10;0.10;;;6.70;99.90;12.80;163505.00;;;;5012707;28;20200;-77
2023/01/04 11:06:26;;;;;;;0.10;0.10;;;6.70;99.90;12.80;163505.00;;;;5005331;28;20219;-76
2023/01/04 11:09:02;;;;;;;0.10;0.10;;;6.70;99.90;12.80;163505.00;;;;5012531;28;20199;-77
2023/01/04 11:11:35;;;;;;;0.10;0.10;;;6.70;99.90;12.80;163505.00;;;;5012916;28;20208;-77
2023/01/04 11:14:04;;;;;;;0.10;0.10;;;6.70;99.90;12.80;163505.00;;;;4996038;28;20208;-77
2023/01/04 11:16:33;;;;;;;0.10;0.10;;;6.70;99.90;12.80;163505.00;;;;5013396;28;20291;-77
2023/01/04 11:19:03;;;;;;;0.10;0.10;;;6.60;99.90;12.80;163505.00;;;;5012542;28;20204;-77
2023/01/04 11:21:43;;;;;;;0.10;0.10;;;6.60;99.90;12.80;163505.00;;;;5012985;28;20726;-77
2023/01/04 11:24:14;;;;;;;0.10;0.10;;;6.60;99.90;12.80;163505.00;;;;5012354;28;20200;-77
2023/01/04 11:27:05;;;;;;;0.10;0.10;;;6.60;99.90;12.80;163505.00;;;;5011693;28;20644;-77
2023/01/04 11:29:41;;;;;;;0.10;0.10;;;6.60;99.90;12.80;163505.00;;;;5001208;28;20302;-77
2023/01/04 11:32:24;;;;;;;0.10;0.10;;;6.60;99.90;12.80;163505.00;;;;5005838;28;20199;-76
2023/01/04 11:34:56;;;;;;;0.10;0.10;;;6.60;99.90;12.80;163505.00;;;;5009595;28;20207;-77
2023/01/04 11:37:29;;;;;;;0.10;0.10;;;6.60;99.90;12.80;163505.00;;;;5002790;28;20194;-77
2023/01/04 11:40:24;;;;;;;0.10;0.10;;;6.60;99.90;12.80;163505.00;;;;5012303;28;20202;-76
2023/01/04 11:43:10;;;;;;;0.10;0.10;;;6.50;99.90;12.80;163505.00;;;;5003322;28;20215;-77
2023/01/04 11:45:39;;;;;;;0.10;0.10;;;6.60;99.90;12.80;163505.00;;;;5006935;28;20771;-77
2023/01/04 11:48:15;;;;;;;0.10;0.10;;;6.50;99.90;12.80;163505.00;;;;4993485;28;20299;-77
2023/01/04 11:50:46;;;;;;;0.10;0.10;;;6.50;99.90;12.80;163505.00;;;;5007803;28;20278;-77
2023/01/04 11:53:29;;;;;;;0.10;0.10;;;6.50;99.90;12.80;163505.00;;;;5011970;28;20630;-77
2023/01/04 11:56:15;;;;;;;0.10;0.10;;;6.50;99.90;12.80;163505.00;;;;5011859;28;20277;-77
2023/01/04 11:59:01;;;;;;;0.10;0.10;;;6.50;99.90;12.80;163505.00;;;;5008880;28;20262;-77
2023/01/04 12:01:30;;;;;;;0.10;0.10;;;6.50;99.90;12.80;163505.00;;;;4998134;28;20253;-76
2023/01/04 12:04:00;;;;;;;0.10;0.10;;;6.50;99.90;12.80;163505.00;;;;5011110;28;20215;-76
2023/01/04 12:06:38;;;;;;;0.10;0.10;;;6.50;99.90;12.80;163505.00;;;;5012249;28;20215;-77
2023/01/04 12:09:12;;;;;;;0.10;0.10;;;6.50;99.90;12.80;163505.00;;;;5010745;28;20676;-77
2023/01/04 12:11:45;;;;;;;0.10;0.10;;;6.50;99.90;12.80;163505.00;;;;5012449;28;20231;-77